PWSweather.com
Personal Weather Stations
Station Observations
ESTGRALPAZ
Santa Fe, Santa FeAR 3000

Santa FeSanta FeAR 3000

Lat: -31.6280555556, Lon: -60.6908333333

Elevation: 69

Station Type: WH1081

http://www.estaciongralpaz.com.ar

Latest ConditionsUpdated 4:59:00 AM GMT-03:57 Tuesday, Jul 17, 2018
Currently Today's Max Today's Min Today's Average
Temperature 54.3°F12.4°C 55.4°F13.0°C 54.3°F12.4°C 55.0°F12.8°C
Dew Point 46.2°F7.9°C 46.4°F8.0°C 43.8°F6.6°C 45.2°F7.3°C
Winds 2.2 mph ESE3.5 kmh ESE 8.3 mph -13.4 kmh - - 4.1 mph 6.6 kmh
Wind Gusts 10.7 mph17.2 kmh 13.0 mph20.9 kmh - -
Humidity 74% 74% 65% 69%
Pressure 29.98 in1015.2 mb 30.03 in1016.9 mb 29.98 in1015.2 mb -
Hour Temp Dew Point Humidity Winds Wind Gusts Pressure Precip Precip Rate Daily Precip Total
04:59 AM 54.3°F12.4°C 46.2°F7.9°C 74% 2.2 mph ESE3.5 kmh ESE 10.7 mph17.2 kmh 29.98 in1015.2 mb 0.00 in0.0 mm 0.00 in0.0 mm 0.00 in0.0 mm
04:58 AM 54.3°F12.4°C 46.2°F7.9°C 74% 2.2 mph E3.5 kmh E 10.7 mph17.2 kmh 29.98 in1015.2 mb 0.00 in0.0 mm 0.00 in0.0 mm 0.00 in0.0 mm
04:57 AM 54.3°F12.4°C 46.2°F7.9°C 74% 7.6 mph ESE12.2 kmh ESE 10.7 mph17.2 kmh 29.98 in1015.2 mb 0.00 in0.0 mm 0.00 in0.0 mm 0.00 in0.0 mm
04:56 AM 54.3°F12.4°C 46.2°F7.9°C 74% 6.0 mph ESE9.7 kmh ESE 10.7 mph17.2 kmh 29.98 in1015.2 mb 0.00 in0.0 mm 0.00 in0.0 mm 0.00 in0.0 mm
04:55 AM 54.3°F12.4°C 46.2°F7.9°C 74% 3.8 mph ESE6.1 kmh ESE 10.7 mph17.2 kmh 29.98 in1015.2 mb 0.00 in0.0 mm 0.00 in0.0 mm 0.00 in0.0 mm
04:54 AM 54.3°F12.4°C 46.2°F7.9°C 74% 3.8 mph ESE6.1 kmh ESE 10.7 mph17.2 kmh 29.98 in1015.2 mb 0.00 in0.0 mm 0.00 in0.0 mm 0.00 in0.0 mm
04:53 AM 54.3°F12.4°C 46.2°F7.9°C 74% 5.4 mph ESE8.7 kmh ESE 10.7 mph17.2 kmh 29.98 in1015.2 mb 0.00 in0.0 mm 0.00 in0.0 mm 0.00 in0.0 mm
04:52 AM 54.3°F12.4°C 46.2°F7.9°C 74% 6.0 mph ESE9.7 kmh ESE 9.2 mph14.8 kmh 29.98 in1015.2 mb 0.00 in0.0 mm 0.00 in0.0 mm 0.00 in0.0 mm
04:51 AM 54.5°F12.5°C 46.4°F8.0°C 74% 4.5 mph ESE7.2 kmh ESE 7.6 mph12.2 kmh 29.98 in1015.2 mb 0.00 in0.0 mm 0.00 in0.0 mm 0.00 in0.0 mm
04:50 AM 54.3°F12.4°C 46.2°F7.9°C 74% 3.8 mph ESE6.1 kmh ESE 7.6 mph12.2 kmh 29.98 in1015.2 mb 0.00 in0.0 mm 0.00 in0.0 mm 0.00 in0.0 mm
04:49 AM 54.3°F12.4°C 46.2°F7.9°C 74% 3.1 mph ESE5.0 kmh ESE 7.6 mph12.2 kmh 29.98 in1015.2 mb 0.00 in0.0 mm 0.00 in0.0 mm 0.00 in0.0 mm
04:48 AM 54.3°F12.4°C 46.2°F7.9°C 74% 3.8 mph ESE6.1 kmh ESE 7.6 mph12.2 kmh 29.98 in1015.2 mb 0.00 in0.0 mm 0.00 in0.0 mm 0.00 in0.0 mm
04:47 AM 54.5°F12.5°C 46.4°F8.0°C 74% 3.8 mph ESE6.1 kmh ESE 7.6 mph12.2 kmh 29.98 in1015.2 mb 0.00 in0.0 mm 0.00 in0.0 mm 0.00 in0.0 mm
04:46 AM 54.5°F12.5°C 46.4°F8.0°C 74% 3.1 mph ESE5.0 kmh ESE 7.6 mph12.2 kmh 29.99 in1015.6 mb 0.00 in0.0 mm 0.00 in0.0 mm 0.00 in0.0 mm
04:45 AM 54.5°F12.5°C 46.4°F8.0°C 74% 3.8 mph ESE6.1 kmh ESE 7.6 mph12.2 kmh 29.98 in1015.2 mb 0.00 in0.0 mm 0.00 in0.0 mm 0.00 in0.0 mm
04:44 AM 54.5°F12.5°C 46.4°F8.0°C 74% 5.4 mph ESE8.7 kmh ESE 7.6 mph12.2 kmh 29.98 in1015.2 mb 0.00 in0.0 mm 0.00 in0.0 mm 0.00 in0.0 mm
04:43 AM 54.5°F12.5°C 46.4°F8.0°C 74% 4.5 mph SE7.2 kmh SE 7.6 mph12.2 kmh 29.99 in1015.6 mb 0.00 in0.0 mm 0.00 in0.0 mm 0.00 in0.0 mm
04:42 AM 54.5°F12.5°C 46.4°F8.0°C 74% 2.2 mph SE3.5 kmh SE 7.6 mph12.2 kmh 29.98 in1015.2 mb 0.00 in0.0 mm 0.00 in0.0 mm 0.00 in0.0 mm
04:41 AM 54.5°F12.5°C 46.4°F8.0°C 74% 0.7 mph SE1.1 kmh SE 7.6 mph12.2 kmh 29.98 in1015.2 mb 0.00 in0.0 mm 0.00 in0.0 mm 0.00 in0.0 mm
04:40 AM 54.5°F12.5°C 46.0°F7.8°C 73% 3.1 mph SE5.0 kmh SE 7.6 mph12.2 kmh 29.99 in1015.6 mb 0.00 in0.0 mm 0.00 in0.0 mm 0.00 in0.0 mm
04:39 AM 54.5°F12.5°C 46.0°F7.8°C 73% 3.1 mph SE5.0 kmh SE 7.6 mph12.2 kmh 29.98 in1015.2 mb 0.00 in0.0 mm 0.00 in0.0 mm 0.00 in0.0 mm
04:38 AM 54.5°F12.5°C 46.0°F7.8°C 73% 3.8 mph SE6.1 kmh SE 7.6 mph12.2 kmh 29.98 in1015.2 mb 0.00 in0.0 mm 0.00 in0.0 mm 0.00 in0.0 mm
04:37 AM 54.5°F12.5°C 46.0°F7.8°C 73% 2.2 mph ESE3.5 kmh ESE 7.6 mph12.2 kmh 29.99 in1015.6 mb 0.00 in0.0 mm 0.00 in0.0 mm 0.00 in0.0 mm
04:36 AM 54.5°F12.5°C 46.0°F7.8°C 73% 3.8 mph ESE6.1 kmh ESE 7.6 mph12.2 kmh 29.98 in1015.2 mb 0.00 in0.0 mm 0.00 in0.0 mm 0.00 in0.0 mm
04:35 AM 54.5°F12.5°C 46.0°F7.8°C 73% 4.5 mph ESE7.2 kmh ESE 7.6 mph12.2 kmh 29.98 in1015.2 mb 0.00 in0.0 mm 0.00 in0.0 mm 0.00 in0.0 mm
04:34 AM 54.5°F12.5°C 46.0°F7.8°C 73% 3.8 mph ESE6.1 kmh ESE 7.6 mph12.2 kmh 29.99 in1015.6 mb 0.00 in0.0 mm 0.00 in0.0 mm 0.00 in0.0 mm
04:33 AM 54.7°F12.6°C 46.2°F7.9°C 73% 2.2 mph E3.5 kmh E 7.6 mph12.2 kmh 29.99 in1015.6 mb 0.00 in0.0 mm 0.00 in0.0 mm 0.00 in0.0 mm
04:32 AM 54.7°F12.6°C 46.2°F7.9°C 73% 2.2 mph E3.5 kmh E 7.6 mph12.2 kmh 29.98 in1015.2 mb 0.00 in0.0 mm 0.00 in0.0 mm 0.00 in0.0 mm
04:31 AM 54.5°F12.5°C 46.0°F7.8°C 73% 3.1 mph ESE5.0 kmh ESE 7.6 mph12.2 kmh 29.98 in1015.2 mb 0.00 in0.0 mm 0.00 in0.0 mm 0.00 in0.0 mm
04:30 AM 54.7°F12.6°C 46.2°F7.9°C 73% 1.6 mph ESE2.6 kmh ESE 8.3 mph13.4 kmh 29.99 in1015.6 mb 0.00 in0.0 mm 0.00 in0.0 mm 0.00 in0.0 mm
04:29 AM 54.5°F12.5°C 46.0°F7.8°C 73% 1.6 mph ESE2.6 kmh ESE 8.3 mph13.4 kmh 29.99 in1015.6 mb 0.00 in0.0 mm 0.00 in0.0 mm 0.00 in0.0 mm
04:28 AM 54.7°F12.6°C 46.2°F7.9°C 73% 3.1 mph ESE5.0 kmh ESE 8.3 mph13.4 kmh 29.98 in1015.2 mb 0.00 in0.0 mm 0.00 in0.0 mm 0.00 in0.0 mm
04:27 AM 54.7°F12.6°C 46.2°F7.9°C 73% 5.4 mph ESE8.7 kmh ESE 8.3 mph13.4 kmh 29.98 in1015.2 mb 0.00 in0.0 mm 0.00 in0.0 mm 0.00 in0.0 mm
04:26 AM 54.7°F12.6°C 46.2°F7.9°C 73% 3.8 mph ESE6.1 kmh ESE 8.3 mph13.4 kmh 29.98 in1015.2 mb 0.00 in0.0 mm 0.00 in0.0 mm 0.00 in0.0 mm
04:25 AM 54.7°F12.6°C 46.2°F7.9°C 73% 3.1 mph SE5.0 kmh SE 8.3 mph13.4 kmh 29.98 in1015.2 mb 0.00 in0.0 mm 0.00 in0.0 mm 0.00 in0.0 mm
04:24 AM 54.7°F12.6°C 46.2°F7.9°C 73% 1.6 mph ESE2.6 kmh ESE 8.3 mph13.4 kmh 29.99 in1015.6 mb 0.00 in0.0 mm 0.00 in0.0 mm 0.00 in0.0 mm
04:23 AM 54.7°F12.6°C 46.2°F7.9°C 73% 2.2 mph SE3.5 kmh SE 8.3 mph13.4 kmh 29.99 in1015.6 mb 0.00 in0.0 mm 0.00 in0.0 mm 0.00 in0.0 mm
04:22 AM 54.7°F12.6°C 46.2°F7.9°C 73% 5.4 mph SE8.7 kmh SE 8.3 mph13.4 kmh 29.99 in1015.6 mb 0.00 in0.0 mm 0.00 in0.0 mm 0.00 in0.0 mm
04:21 AM 54.7°F12.6°C 46.2°F7.9°C 73% 3.8 mph SE6.1 kmh SE 8.3 mph13.4 kmh 29.98 in1015.2 mb 0.00 in0.0 mm 0.00 in0.0 mm 0.00 in0.0 mm
04:20 AM 54.7°F12.6°C 46.2°F7.9°C 73% 3.1 mph SE5.0 kmh SE 7.6 mph12.2 kmh 29.99 in1015.6 mb 0.00 in0.0 mm 0.00 in0.0 mm 0.00 in0.0 mm
04:19 AM 54.7°F12.6°C 46.2°F7.9°C 73% 3.1 mph SE5.0 kmh SE 7.6 mph12.2 kmh 29.99 in1015.6 mb 0.00 in0.0 mm 0.00 in0.0 mm 0.00 in0.0 mm
04:18 AM 54.7°F12.6°C 46.2°F7.9°C 73% 3.1 mph SE5.0 kmh SE 7.6 mph12.2 kmh 29.99 in1015.6 mb 0.00 in0.0 mm 0.00 in0.0 mm 0.00 in0.0 mm
04:17 AM 54.7°F12.6°C 46.2°F7.9°C 73% 5.4 mph SE8.7 kmh SE 7.6 mph12.2 kmh 29.98 in1015.2 mb 0.00 in0.0 mm 0.00 in0.0 mm 0.00 in0.0 mm
04:16 AM 54.7°F12.6°C 46.2°F7.9°C 73% 3.1 mph SE5.0 kmh SE 7.6 mph12.2 kmh 29.98 in1015.2 mb 0.00 in0.0 mm 0.00 in0.0 mm 0.00 in0.0 mm
04:15 AM 54.7°F12.6°C 46.2°F7.9°C 73% 3.8 mph SE6.1 kmh SE 7.6 mph12.2 kmh 29.99 in1015.6 mb 0.00 in0.0 mm 0.00 in0.0 mm 0.00 in0.0 mm
04:14 AM 54.7°F12.6°C 46.2°F7.9°C 73% 5.4 mph SE8.7 kmh SE 7.6 mph12.2 kmh 29.99 in1015.6 mb 0.00 in0.0 mm 0.00 in0.0 mm 0.00 in0.0 mm
04:13 AM 54.7°F12.6°C 46.2°F7.9°C 73% 3.1 mph SE5.0 kmh SE 6.9 mph11.1 kmh 29.99 in1015.6 mb 0.00 in0.0 mm 0.00 in0.0 mm 0.00 in0.0 mm
04:12 AM 54.7°F12.6°C 45.8°F7.7°C 72% 3.8 mph SE6.1 kmh SE 8.3 mph13.4 kmh 29.99 in1015.6 mb 0.00 in0.0 mm 0.00 in0.0 mm 0.00 in0.0 mm
04:11 AM 54.7°F12.6°C 45.8°F7.7°C 72% 3.8 mph SE6.1 kmh SE 8.3 mph13.4 kmh 29.98 in1015.2 mb 0.00 in0.0 mm 0.00 in0.0 mm 0.00 in0.0 mm
04:10 AM 54.7°F12.6°C 45.8°F7.7°C 72% 3.8 mph SE6.1 kmh SE 8.3 mph13.4 kmh 29.98 in1015.2 mb 0.00 in0.0 mm 0.00 in0.0 mm 0.00 in0.0 mm
04:09 AM 54.7°F12.6°C 45.8°F7.7°C 72% 3.8 mph SE6.1 kmh SE 8.3 mph13.4 kmh 29.99 in1015.6 mb 0.00 in0.0 mm 0.00 in0.0 mm 0.00 in0.0 mm
04:08 AM 54.7°F12.6°C 45.8°F7.7°C 72% 4.5 mph SE7.2 kmh SE 8.3 mph13.4 kmh 29.99 in1015.6 mb 0.00 in0.0 mm 0.00 in0.0 mm 0.00 in0.0 mm
04:07 AM 54.7°F12.6°C 45.8°F7.7°C 72% 3.1 mph SE5.0 kmh SE 8.3 mph13.4 kmh 29.99 in1015.6 mb 0.00 in0.0 mm 0.00 in0.0 mm 0.00 in0.0 mm
04:06 AM 54.7°F12.6°C 45.8°F7.7°C 72% 1.6 mph ESE2.6 kmh ESE 8.3 mph13.4 kmh 29.99 in1015.6 mb 0.00 in0.0 mm 0.00 in0.0 mm 0.00 in0.0 mm
04:05 AM 54.7°F12.6°C 45.8°F7.7°C 72% 2.2 mph ESE3.5 kmh ESE 8.3 mph13.4 kmh 29.99 in1015.6 mb 0.00 in0.0 mm 0.00 in0.0 mm 0.00 in0.0 mm
04:04 AM 54.7°F12.6°C 45.8°F7.7°C 72% 3.1 mph ESE5.0 kmh ESE 8.3 mph13.4 kmh 29.99 in1015.6 mb 0.00 in0.0 mm 0.00 in0.0 mm 0.00 in0.0 mm
04:03 AM 54.7°F12.6°C 45.8°F7.7°C 72% 3.1 mph ESE5.0 kmh ESE 8.3 mph13.4 kmh 29.99 in1015.6 mb 0.00 in0.0 mm 0.00 in0.0 mm 0.00 in0.0 mm
04:02 AM 54.7°F12.6°C 45.8°F7.7°C 72% 6.0 mph ESE9.7 kmh ESE 8.3 mph13.4 kmh 29.99 in1015.6 mb 0.00 in0.0 mm 0.00 in0.0 mm 0.00 in0.0 mm
04:01 AM 54.7°F12.6°C 45.8°F7.7°C 72% 3.1 mph SE5.0 kmh SE 8.3 mph13.4 kmh 29.99 in1015.6 mb 0.00 in0.0 mm 0.00 in0.0 mm 0.00 in0.0 mm
04:00 AM 54.9°F12.7°C 46.0°F7.8°C 72% 4.5 mph SE7.2 kmh SE 8.3 mph13.4 kmh 29.99 in1015.6 mb 0.00 in0.0 mm 0.00 in0.0 mm 0.00 in0.0 mm
03:59 AM 54.9°F12.7°C 46.0°F7.8°C 72% 4.5 mph ESE7.2 kmh ESE 8.3 mph13.4 kmh 29.99 in1015.6 mb 0.00 in0.0 mm 0.00 in0.0 mm 0.00 in0.0 mm
03:58 AM 54.9°F12.7°C 46.0°F7.8°C 72% 4.5 mph ESE7.2 kmh ESE 8.3 mph13.4 kmh 29.99 in1015.6 mb 0.00 in0.0 mm 0.00 in0.0 mm 0.00 in0.0 mm
03:57 AM 54.9°F12.7°C 46.0°F7.8°C 72% 3.8 mph SE6.1 kmh SE 8.3 mph13.4 kmh 29.99 in1015.6 mb 0.00 in0.0 mm 0.00 in0.0 mm 0.00 in0.0 mm
03:56 AM 54.9°F12.7°C 46.0°F7.8°C 72% 3.8 mph SE6.1 kmh SE 8.3 mph13.4 kmh 29.98 in1015.2 mb 0.00 in0.0 mm 0.00 in0.0 mm 0.00 in0.0 mm
03:55 AM 54.9°F12.7°C 46.0°F7.8°C 72% 3.8 mph SE6.1 kmh SE 8.3 mph13.4 kmh 29.99 in1015.6 mb 0.00 in0.0 mm 0.00 in0.0 mm 0.00 in0.0 mm
03:54 AM 54.9°F12.7°C 46.0°F7.8°C 72% 3.1 mph SE5.0 kmh SE 8.3 mph13.4 kmh 29.99 in1015.6 mb 0.00 in0.0 mm 0.00 in0.0 mm 0.00 in0.0 mm
03:53 AM 54.9°F12.7°C 46.0°F7.8°C 72% 3.8 mph SE6.1 kmh SE 8.3 mph13.4 kmh 30.00 in1015.9 mb 0.00 in0.0 mm 0.00 in0.0 mm 0.00 in0.0 mm
03:52 AM 54.9°F12.7°C 46.0°F7.8°C 72% 3.1 mph SE5.0 kmh SE 7.6 mph12.2 kmh 29.98 in1015.2 mb 0.00 in0.0 mm 0.00 in0.0 mm 0.00 in0.0 mm
03:51 AM 54.9°F12.7°C 46.0°F7.8°C 72% 4.5 mph SE7.2 kmh SE 7.6 mph12.2 kmh 29.99 in1015.6 mb 0.00 in0.0 mm 0.00 in0.0 mm 0.00 in0.0 mm
03:50 AM 54.9°F12.7°C 46.0°F7.8°C 72% 4.5 mph SE7.2 kmh SE 7.6 mph12.2 kmh 29.99 in1015.6 mb 0.00 in0.0 mm 0.00 in0.0 mm 0.00 in0.0 mm
03:49 AM 54.9°F12.7°C 46.0°F7.8°C 72% 2.2 mph SE3.5 kmh SE 8.3 mph13.4 kmh 29.99 in1015.6 mb 0.00 in0.0 mm 0.00 in0.0 mm 0.00 in0.0 mm
03:48 AM 54.9°F12.7°C 46.0°F7.8°C 72% 2.2 mph SE3.5 kmh SE 8.3 mph13.4 kmh 29.99 in1015.6 mb 0.00 in0.0 mm 0.00 in0.0 mm 0.00 in0.0 mm
03:47 AM 54.9°F12.7°C 46.0°F7.8°C 72% 3.8 mph SE6.1 kmh SE 8.3 mph13.4 kmh 29.99 in1015.6 mb 0.00 in0.0 mm 0.00 in0.0 mm 0.00 in0.0 mm
03:46 AM 54.9°F12.7°C 46.0°F7.8°C 72% 3.8 mph SE6.1 kmh SE 8.3 mph13.4 kmh 29.99 in1015.6 mb 0.00 in0.0 mm 0.00 in0.0 mm 0.00 in0.0 mm
03:45 AM 54.9°F12.7°C 46.0°F7.8°C 72% 4.5 mph SE7.2 kmh SE 8.3 mph13.4 kmh 29.99 in1015.6 mb 0.00 in0.0 mm 0.00 in0.0 mm 0.00 in0.0 mm
03:44 AM 54.9°F12.7°C 46.0°F7.8°C 72% 2.2 mph SE3.5 kmh SE 8.3 mph13.4 kmh 29.99 in1015.6 mb 0.00 in0.0 mm 0.00 in0.0 mm 0.00 in0.0 mm
03:43 AM 54.9°F12.7°C 46.0°F7.8°C 72% 3.8 mph SE6.1 kmh SE 8.3 mph13.4 kmh 29.99 in1015.6 mb 0.00 in0.0 mm 0.00 in0.0 mm 0.00 in0.0 mm
03:42 AM 54.9°F12.7°C 46.0°F7.8°C 72% 4.5 mph SE7.2 kmh SE 8.3 mph13.4 kmh 29.99 in1015.6 mb 0.00 in0.0 mm 0.00 in0.0 mm 0.00 in0.0 mm
03:41 AM 54.9°F12.7°C 46.0°F7.8°C 72% 3.1 mph SE5.0 kmh SE 8.3 mph13.4 kmh 29.99 in1015.6 mb 0.00 in0.0 mm 0.00 in0.0 mm 0.00 in0.0 mm
03:40 AM 54.9°F12.7°C 46.0°F7.8°C 72% 3.8 mph SE6.1 kmh SE 10.7 mph17.2 kmh 29.99 in1015.6 mb 0.00 in0.0 mm 0.00 in0.0 mm 0.00 in0.0 mm
03:39 AM 54.9°F12.7°C 46.0°F7.8°C 72% 6.9 mph SE11.1 kmh SE 10.7 mph17.2 kmh 29.99 in1015.6 mb 0.00 in0.0 mm 0.00 in0.0 mm 0.00 in0.0 mm
03:38 AM 54.9°F12.7°C 46.0°F7.8°C 72% 2.2 mph SE3.5 kmh SE 10.7 mph17.2 kmh 29.98 in1015.2 mb 0.00 in0.0 mm 0.00 in0.0 mm 0.00 in0.0 mm
03:37 AM 54.9°F12.7°C 46.0°F7.8°C 72% 3.1 mph SE5.0 kmh SE 10.7 mph17.2 kmh 29.99 in1015.6 mb 0.00 in0.0 mm 0.00 in0.0 mm 0.00 in0.0 mm
03:36 AM 54.9°F12.7°C 46.0°F7.8°C 72% 3.1 mph SE5.0 kmh SE 10.7 mph17.2 kmh 29.99 in1015.6 mb 0.00 in0.0 mm 0.00 in0.0 mm 0.00 in0.0 mm
03:35 AM 54.9°F12.7°C 46.0°F7.8°C 72% 1.6 mph SE2.6 kmh SE 10.7 mph17.2 kmh 29.99 in1015.6 mb 0.00 in0.0 mm 0.00 in0.0 mm 0.00 in0.0 mm
03:34 AM 54.9°F12.7°C 46.0°F7.8°C 72% 3.8 mph SE6.1 kmh SE 10.7 mph17.2 kmh 29.99 in1015.6 mb 0.00 in0.0 mm 0.00 in0.0 mm 0.00 in0.0 mm
03:33 AM 54.9°F12.7°C 46.0°F7.8°C 72% 2.2 mph SE3.5 kmh SE 10.7 mph17.2 kmh 29.99 in1015.6 mb 0.00 in0.0 mm 0.00 in0.0 mm 0.00 in0.0 mm
03:32 AM 54.9°F12.7°C 46.0°F7.8°C 72% 3.1 mph SE5.0 kmh SE 10.7 mph17.2 kmh 29.99 in1015.6 mb 0.00 in0.0 mm 0.00 in0.0 mm 0.00 in0.0 mm
03:31 AM 54.9°F12.7°C 46.0°F7.8°C 72% 3.8 mph SE6.1 kmh SE 10.7 mph17.2 kmh 29.99 in1015.6 mb 0.00 in0.0 mm 0.00 in0.0 mm 0.00 in0.0 mm
03:30 AM 54.9°F12.7°C 46.0°F7.8°C 72% 6.9 mph SE11.1 kmh SE 10.7 mph17.2 kmh 29.99 in1015.6 mb 0.00 in0.0 mm 0.00 in0.0 mm 0.00 in0.0 mm
03:29 AM 54.9°F12.7°C 46.0°F7.8°C 72% 3.1 mph SE5.0 kmh SE 10.7 mph17.2 kmh 30.00 in1015.9 mb 0.00 in0.0 mm 0.00 in0.0 mm 0.00 in0.0 mm
03:28 AM 54.9°F12.7°C 45.6°F7.6°C 71% 0.7 mph SE1.1 kmh SE 8.3 mph13.4 kmh 29.99 in1015.6 mb 0.00 in0.0 mm 0.00 in0.0 mm 0.00 in0.0 mm
03:27 AM 54.9°F12.7°C 45.6°F7.6°C 71% 3.8 mph ESE6.1 kmh ESE 9.8 mph15.8 kmh 29.99 in1015.6 mb 0.00 in0.0 mm 0.00 in0.0 mm 0.00 in0.0 mm
03:26 AM 54.9°F12.7°C 45.6°F7.6°C 71% 4.5 mph ESE7.2 kmh ESE 9.8 mph15.8 kmh 29.99 in1015.6 mb 0.00 in0.0 mm 0.00 in0.0 mm 0.00 in0.0 mm
03:25 AM 54.9°F12.7°C 45.6°F7.6°C 71% 4.5 mph ESE7.2 kmh ESE 9.8 mph15.8 kmh 29.99 in1015.6 mb 0.00 in0.0 mm 0.00 in0.0 mm 0.00 in0.0 mm
03:24 AM 54.9°F12.7°C 45.6°F7.6°C 71% 3.1 mph ESE5.0 kmh ESE 9.8 mph15.8 kmh 29.99 in1015.6 mb 0.00 in0.0 mm 0.00 in0.0 mm 0.00 in0.0 mm
03:23 AM 54.9°F12.7°C 45.6°F7.6°C 71% 3.1 mph ESE5.0 kmh ESE 9.8 mph15.8 kmh 29.99 in1015.6 mb 0.00 in0.0 mm 0.00 in0.0 mm 0.00 in0.0 mm
03:22 AM 54.9°F12.7°C 45.6°F7.6°C 71% 2.2 mph ESE3.5 kmh ESE 9.8 mph15.8 kmh 29.99 in1015.6 mb 0.00 in0.0 mm 0.00 in0.0 mm 0.00 in0.0 mm
03:21 AM 54.9°F12.7°C 45.6°F7.6°C 71% 2.2 mph ESE3.5 kmh ESE 9.8 mph15.8 kmh 29.99 in1015.6 mb 0.00 in0.0 mm 0.00 in0.0 mm 0.00 in0.0 mm
03:20 AM 54.9°F12.7°C 45.6°F7.6°C 71% 3.1 mph ESE5.0 kmh ESE 9.8 mph15.8 kmh 29.99 in1015.6 mb 0.00 in0.0 mm 0.00 in0.0 mm 0.00 in0.0 mm
03:19 AM 54.9°F12.7°C 45.6°F7.6°C 71% 4.5 mph ESE7.2 kmh ESE 9.8 mph15.8 kmh 29.99 in1015.6 mb 0.00 in0.0 mm 0.00 in0.0 mm 0.00 in0.0 mm
03:18 AM 54.9°F12.7°C 45.6°F7.6°C 71% 3.8 mph ESE6.1 kmh ESE 9.8 mph15.8 kmh 29.99 in1015.6 mb 0.00 in0.0 mm 0.00 in0.0 mm 0.00 in0.0 mm
03:17 AM 54.9°F12.7°C 45.6°F7.6°C 71% 6.0 mph ESE9.7 kmh ESE 9.8 mph15.8 kmh 29.99 in1015.6 mb 0.00 in0.0 mm 0.00 in0.0 mm 0.00 in0.0 mm
03:16 AM 54.9°F12.7°C 45.6°F7.6°C 71% 4.5 mph ESE7.2 kmh ESE 7.6 mph12.2 kmh 29.99 in1015.6 mb 0.00 in0.0 mm 0.00 in0.0 mm 0.00 in0.0 mm
03:15 AM 54.9°F12.7°C 45.6°F7.6°C 71% 5.4 mph ESE8.7 kmh ESE 7.6 mph12.2 kmh 30.00 in1015.9 mb 0.00 in0.0 mm 0.00 in0.0 mm 0.00 in0.0 mm
03:14 AM 54.9°F12.7°C 45.6°F7.6°C 71% 3.1 mph ESE5.0 kmh ESE 7.6 mph12.2 kmh 30.00 in1015.9 mb 0.00 in0.0 mm 0.00 in0.0 mm 0.00 in0.0 mm
03:13 AM 54.9°F12.7°C 45.6°F7.6°C 71% 3.8 mph ESE6.1 kmh ESE 8.3 mph13.4 kmh 30.00 in1015.9 mb 0.00 in0.0 mm 0.00 in0.0 mm 0.00 in0.0 mm
03:12 AM 54.9°F12.7°C 45.6°F7.6°C 71% 4.5 mph ESE7.2 kmh ESE 8.3 mph13.4 kmh 30.00 in1015.9 mb 0.00 in0.0 mm 0.00 in0.0 mm 0.00 in0.0 mm
03:11 AM 54.9°F12.7°C 45.6°F7.6°C 71% 4.5 mph ESE7.2 kmh ESE 8.3 mph13.4 kmh 30.00 in1015.9 mb 0.00 in0.0 mm 0.00 in0.0 mm 0.00 in0.0 mm
03:10 AM 54.9°F12.7°C 45.6°F7.6°C 71% 4.5 mph ESE7.2 kmh ESE 8.3 mph13.4 kmh 29.99 in1015.6 mb 0.00 in0.0 mm 0.00 in0.0 mm 0.00 in0.0 mm
03:09 AM 54.9°F12.7°C 45.6°F7.6°C 71% 3.8 mph ESE6.1 kmh ESE 8.3 mph13.4 kmh 29.99 in1015.6 mb 0.00 in0.0 mm 0.00 in0.0 mm 0.00 in0.0 mm
03:08 AM 54.9°F12.7°C 45.6°F7.6°C 71% 3.1 mph ESE5.0 kmh ESE 8.3 mph13.4 kmh 29.99 in1015.6 mb 0.00 in0.0 mm 0.00 in0.0 mm 0.00 in0.0 mm
03:07 AM 54.9°F12.7°C 45.6°F7.6°C 71% 4.5 mph ESE7.2 kmh ESE 8.3 mph13.4 kmh 30.00 in1015.9 mb 0.00 in0.0 mm 0.00 in0.0 mm 0.00 in0.0 mm
03:06 AM 55.0°F12.8°C 45.8°F7.7°C 71% 2.2 mph ESE3.5 kmh ESE 8.3 mph13.4 kmh 29.99 in1015.6 mb 0.00 in0.0 mm 0.00 in0.0 mm 0.00 in0.0 mm
03:05 AM 55.0°F12.8°C 45.8°F7.7°C 71% 2.2 mph ESE3.5 kmh ESE 8.3 mph13.4 kmh 30.00 in1015.9 mb 0.00 in0.0 mm 0.00 in0.0 mm 0.00 in0.0 mm
03:04 AM 55.0°F12.8°C 45.8°F7.7°C 71% 5.4 mph ESE8.7 kmh ESE 8.3 mph13.4 kmh 29.99 in1015.6 mb 0.00 in0.0 mm 0.00 in0.0 mm 0.00 in0.0 mm
03:03 AM 55.0°F12.8°C 45.8°F7.7°C 71% 5.4 mph E8.7 kmh E 7.6 mph12.2 kmh 30.00 in1015.9 mb 0.00 in0.0 mm 0.00 in0.0 mm 0.00 in0.0 mm
03:02 AM 55.0°F12.8°C 45.8°F7.7°C 71% 3.8 mph E6.1 kmh E 7.6 mph12.2 kmh 30.00 in1015.9 mb 0.00 in0.0 mm 0.00 in0.0 mm 0.00 in0.0 mm
03:01 AM 55.0°F12.8°C 45.8°F7.7°C 71% 2.2 mph E3.5 kmh E 7.6 mph12.2 kmh 29.99 in1015.6 mb 0.00 in0.0 mm 0.00 in0.0 mm 0.00 in0.0 mm
03:00 AM 55.0°F12.8°C 45.8°F7.7°C 71% 5.4 mph ESE8.7 kmh ESE 7.6 mph12.2 kmh 30.00 in1015.9 mb 0.00 in0.0 mm 0.00 in0.0 mm 0.00 in0.0 mm
02:59 AM 55.0°F12.8°C 45.8°F7.7°C 71% 4.5 mph ESE7.2 kmh ESE 9.8 mph15.8 kmh 30.00 in1015.9 mb 0.00 in0.0 mm 0.00 in0.0 mm 0.00 in0.0 mm
02:58 AM 55.0°F12.8°C 45.8°F7.7°C 71% 5.4 mph ESE8.7 kmh ESE 9.8 mph15.8 kmh 30.00 in1015.9 mb 0.00 in0.0 mm 0.00 in0.0 mm 0.00 in0.0 mm
02:57 AM 55.0°F12.8°C 45.8°F7.7°C 71% 3.1 mph SE5.0 kmh SE 9.8 mph15.8 kmh 30.00 in1015.9 mb 0.00 in0.0 mm 0.00 in0.0 mm 0.00 in0.0 mm
02:56 AM 55.0°F12.8°C 45.8°F7.7°C 71% 5.4 mph SE8.7 kmh SE 9.8 mph15.8 kmh 29.99 in1015.6 mb 0.00 in0.0 mm 0.00 in0.0 mm 0.00 in0.0 mm
02:55 AM 55.0°F12.8°C 45.8°F7.7°C 71% 1.6 mph SE2.6 kmh SE 9.8 mph15.8 kmh 30.00 in1015.9 mb 0.00 in0.0 mm 0.00 in0.0 mm 0.00 in0.0 mm
02:54 AM 55.0°F12.8°C 45.4°F7.4°C 70% 3.1 mph SE5.0 kmh SE 9.8 mph15.8 kmh 30.00 in1015.9 mb 0.00 in0.0 mm 0.00 in0.0 mm 0.00 in0.0 mm
02:53 AM 55.0°F12.8°C 45.4°F7.4°C 70% 4.5 mph SE7.2 kmh SE 9.8 mph15.8 kmh 30.00 in1015.9 mb 0.00 in0.0 mm 0.00 in0.0 mm 0.00 in0.0 mm
02:52 AM 55.0°F12.8°C 45.4°F7.4°C 70% 1.6 mph SE2.6 kmh SE 9.8 mph15.8 kmh 29.99 in1015.6 mb 0.00 in0.0 mm 0.00 in0.0 mm 0.00 in0.0 mm
02:51 AM 55.0°F12.8°C 45.4°F7.4°C 70% 3.8 mph SE6.1 kmh SE 9.8 mph15.8 kmh 29.99 in1015.6 mb 0.00 in0.0 mm 0.00 in0.0 mm 0.00 in0.0 mm
02:50 AM 55.0°F12.8°C 45.4°F7.4°C 70% 4.5 mph SE7.2 kmh SE 9.8 mph15.8 kmh 30.00 in1015.9 mb 0.00 in0.0 mm 0.00 in0.0 mm 0.00 in0.0 mm
02:49 AM 55.0°F12.8°C 45.4°F7.4°C 70% 5.4 mph SE8.7 kmh SE 9.8 mph15.8 kmh 30.00 in1015.9 mb 0.00 in0.0 mm 0.00 in0.0 mm 0.00 in0.0 mm
02:48 AM 55.0°F12.8°C 45.4°F7.4°C 70% 4.5 mph SE7.2 kmh SE 9.2 mph14.8 kmh 30.00 in1015.9 mb 0.00 in0.0 mm 0.00 in0.0 mm 0.00 in0.0 mm
02:47 AM 55.0°F12.8°C 45.4°F7.4°C 70% 4.5 mph SE7.2 kmh SE 9.2 mph14.8 kmh 30.00 in1015.9 mb 0.00 in0.0 mm 0.00 in0.0 mm 0.00 in0.0 mm
02:46 AM 55.0°F12.8°C 45.4°F7.4°C 70% 4.5 mph SE7.2 kmh SE 9.2 mph14.8 kmh 30.00 in1015.9 mb 0.00 in0.0 mm 0.00 in0.0 mm 0.00 in0.0 mm
02:45 AM 55.0°F12.8°C 45.4°F7.4°C 70% 3.1 mph SE5.0 kmh SE 9.8 mph15.8 kmh 30.00 in1015.9 mb 0.00 in0.0 mm 0.00 in0.0 mm 0.00 in0.0 mm
02:44 AM 55.0°F12.8°C 45.4°F7.4°C 70% 3.8 mph SE6.1 kmh SE 10.7 mph17.2 kmh 30.00 in1015.9 mb 0.00 in0.0 mm 0.00 in0.0 mm 0.00 in0.0 mm
02:43 AM 55.0°F12.8°C 45.4°F7.4°C 70% 6.0 mph ESE9.7 kmh ESE 10.7 mph17.2 kmh 30.00 in1015.9 mb 0.00 in0.0 mm 0.00 in0.0 mm 0.00 in0.0 mm
02:42 AM 55.0°F12.8°C 45.4°F7.4°C 70% 3.1 mph ESE5.0 kmh ESE 10.7 mph17.2 kmh 30.00 in1015.9 mb 0.00 in0.0 mm 0.00 in0.0 mm 0.00 in0.0 mm
02:41 AM 55.0°F12.8°C 45.4°F7.4°C 70% 3.8 mph ESE6.1 kmh ESE 10.7 mph17.2 kmh 30.00 in1015.9 mb 0.00 in0.0 mm 0.00 in0.0 mm 0.00 in0.0 mm
02:40 AM 55.0°F12.8°C 45.4°F7.4°C 70% 3.1 mph ESE5.0 kmh ESE 10.7 mph17.2 kmh 30.00 in1015.9 mb 0.00 in0.0 mm 0.00 in0.0 mm 0.00 in0.0 mm
02:39 AM 55.0°F12.8°C 45.4°F7.4°C 70% 3.8 mph ESE6.1 kmh ESE 10.7 mph17.2 kmh 30.00 in1015.9 mb 0.00 in0.0 mm 0.00 in0.0 mm 0.00 in0.0 mm
02:38 AM 55.0°F12.8°C 45.4°F7.4°C 70% 4.5 mph ESE7.2 kmh ESE 10.7 mph17.2 kmh 30.00 in1015.9 mb 0.00 in0.0 mm 0.00 in0.0 mm 0.00 in0.0 mm
02:37 AM 55.0°F12.8°C 45.4°F7.4°C 70% 6.0 mph E9.7 kmh E 10.7 mph17.2 kmh 30.00 in1015.9 mb 0.00 in0.0 mm 0.00 in0.0 mm 0.00 in0.0 mm
02:36 AM 55.0°F12.8°C 45.4°F7.4°C 70% 6.0 mph ESE9.7 kmh ESE 10.7 mph17.2 kmh 30.00 in1015.9 mb 0.00 in0.0 mm 0.00 in0.0 mm 0.00 in0.0 mm
02:35 AM 55.0°F12.8°C 45.4°F7.4°C 70% 5.4 mph ESE8.7 kmh ESE 10.7 mph17.2 kmh 30.00 in1015.9 mb 0.00 in0.0 mm 0.00 in0.0 mm 0.00 in0.0 mm
02:34 AM 55.0°F12.8°C 45.4°F7.4°C 70% 5.4 mph ESE8.7 kmh ESE 10.7 mph17.2 kmh 30.00 in1015.9 mb 0.00 in0.0 mm 0.00 in0.0 mm 0.00 in0.0 mm
02:33 AM 55.0°F12.8°C 45.4°F7.4°C 70% 6.9 mph ESE11.1 kmh ESE 9.8 mph15.8 kmh 30.00 in1015.9 mb 0.00 in0.0 mm 0.00 in0.0 mm 0.00 in0.0 mm
02:32 AM 55.0°F12.8°C 45.1°F7.3°C 69% 3.8 mph ESE6.1 kmh ESE 9.2 mph14.8 kmh 30.00 in1015.9 mb 0.00 in0.0 mm 0.00 in0.0 mm 0.00 in0.0 mm
02:31 AM 55.0°F12.8°C 45.1°F7.3°C 69% 5.4 mph ESE8.7 kmh ESE 9.2 mph14.8 kmh 30.00 in1015.9 mb 0.00 in0.0 mm 0.00 in0.0 mm 0.00 in0.0 mm
02:30 AM 55.0°F12.8°C 45.1°F7.3°C 69% 5.4 mph ESE8.7 kmh ESE 9.2 mph14.8 kmh 30.00 in1015.9 mb 0.00 in0.0 mm 0.00 in0.0 mm 0.00 in0.0 mm
02:29 AM 55.0°F12.8°C 45.1°F7.3°C 69% 4.5 mph ESE7.2 kmh ESE 9.2 mph14.8 kmh 30.00 in1015.9 mb 0.00 in0.0 mm 0.00 in0.0 mm 0.00 in0.0 mm
02:28 AM 55.0°F12.8°C 45.1°F7.3°C 69% 3.8 mph SE6.1 kmh SE 9.2 mph14.8 kmh 30.01 in1016.3 mb 0.00 in0.0 mm 0.00 in0.0 mm 0.00 in0.0 mm
02:27 AM 55.0°F12.8°C 45.1°F7.3°C 69% 6.0 mph ESE9.7 kmh ESE 10.7 mph17.2 kmh 30.00 in1015.9 mb 0.00 in0.0 mm 0.00 in0.0 mm 0.00 in0.0 mm
02:26 AM 55.0°F12.8°C 45.1°F7.3°C 69% 3.1 mph ESE5.0 kmh ESE 10.7 mph17.2 kmh 30.00 in1015.9 mb 0.00 in0.0 mm 0.00 in0.0 mm 0.00 in0.0 mm
02:25 AM 55.0°F12.8°C 45.1°F7.3°C 69% 4.5 mph ESE7.2 kmh ESE 10.7 mph17.2 kmh 30.00 in1015.9 mb 0.00 in0.0 mm 0.00 in0.0 mm 0.00 in0.0 mm
02:24 AM 55.0°F12.8°C 45.1°F7.3°C 69% 4.5 mph ESE7.2 kmh ESE 10.7 mph17.2 kmh 30.01 in1016.3 mb 0.00 in0.0 mm 0.00 in0.0 mm 0.00 in0.0 mm
02:23 AM 55.0°F12.8°C 45.1°F7.3°C 69% 3.1 mph ESE5.0 kmh ESE 10.7 mph17.2 kmh 30.01 in1016.3 mb 0.00 in0.0 mm 0.00 in0.0 mm 0.00 in0.0 mm
02:22 AM 55.0°F12.8°C 45.1°F7.3°C 69% 2.2 mph ESE3.5 kmh ESE 10.7 mph17.2 kmh 30.01 in1016.3 mb 0.00 in0.0 mm 0.00 in0.0 mm 0.00 in0.0 mm
02:21 AM 55.0°F12.8°C 45.1°F7.3°C 69% 3.8 mph E6.1 kmh E 10.7 mph17.2 kmh 30.01 in1016.3 mb 0.00 in0.0 mm 0.00 in0.0 mm 0.00 in0.0 mm
02:20 AM 55.0°F12.8°C 45.1°F7.3°C 69% 6.0 mph ESE9.7 kmh ESE 12.1 mph19.5 kmh 30.00 in1015.9 mb 0.00 in0.0 mm 0.00 in0.0 mm 0.00 in0.0 mm
02:19 AM 55.0°F12.8°C 45.1°F7.3°C 69% 5.4 mph E8.7 kmh E 12.1 mph19.5 kmh 30.01 in1016.3 mb 0.00 in0.0 mm 0.00 in0.0 mm 0.00 in0.0 mm
02:18 AM 55.0°F12.8°C 45.1°F7.3°C 69% 3.1 mph E5.0 kmh E 12.1 mph19.5 kmh 30.00 in1015.9 mb 0.00 in0.0 mm 0.00 in0.0 mm 0.00 in0.0 mm
02:17 AM 55.0°F12.8°C 45.1°F7.3°C 69% 7.6 mph E12.2 kmh E 12.1 mph19.5 kmh 30.01 in1016.3 mb 0.00 in0.0 mm 0.00 in0.0 mm 0.00 in0.0 mm
02:16 AM 55.0°F12.8°C 45.1°F7.3°C 69% 5.4 mph ESE8.7 kmh ESE 12.1 mph19.5 kmh 30.00 in1015.9 mb 0.00 in0.0 mm 0.00 in0.0 mm 0.00 in0.0 mm
02:15 AM 55.0°F12.8°C 45.1°F7.3°C 69% 6.0 mph E9.7 kmh E 12.1 mph19.5 kmh 30.00 in1015.9 mb 0.00 in0.0 mm 0.00 in0.0 mm 0.00 in0.0 mm
02:14 AM 55.0°F12.8°C 45.1°F7.3°C 69% 6.0 mph ESE9.7 kmh ESE 12.1 mph19.5 kmh 30.01 in1016.3 mb 0.00 in0.0 mm 0.00 in0.0 mm 0.00 in0.0 mm
02:13 AM 55.2°F12.9°C 45.2°F7.3°C 69% 4.5 mph ESE7.2 kmh ESE 12.1 mph19.5 kmh 30.00 in1015.9 mb 0.00 in0.0 mm 0.00 in0.0 mm 0.00 in0.0 mm
02:12 AM 55.2°F12.9°C 45.2°F7.3°C 69% 4.5 mph E7.2 kmh E 12.1 mph19.5 kmh 30.00 in1015.9 mb 0.00 in0.0 mm 0.00 in0.0 mm 0.00 in0.0 mm
02:11 AM 55.2°F12.9°C 45.2°F7.3°C 69% 6.9 mph ESE11.1 kmh ESE 12.1 mph19.5 kmh 30.01 in1016.3 mb 0.00 in0.0 mm 0.00 in0.0 mm 0.00 in0.0 mm
02:10 AM 55.2°F12.9°C 44.9°F7.2°C 68% 6.0 mph ESE9.7 kmh ESE 12.1 mph19.5 kmh 30.01 in1016.3 mb 0.00 in0.0 mm 0.00 in0.0 mm 0.00 in0.0 mm
02:09 AM 55.2°F12.9°C 44.9°F7.2°C 68% 4.5 mph ESE7.2 kmh ESE 9.2 mph14.8 kmh 30.00 in1015.9 mb 0.00 in0.0 mm 0.00 in0.0 mm 0.00 in0.0 mm
02:08 AM 55.2°F12.9°C 44.9°F7.2°C 68% 3.1 mph ESE5.0 kmh ESE 9.2 mph14.8 kmh 30.00 in1015.9 mb 0.00 in0.0 mm 0.00 in0.0 mm 0.00 in0.0 mm
02:07 AM 55.2°F12.9°C 44.9°F7.2°C 68% 4.5 mph ESE7.2 kmh ESE 9.2 mph14.8 kmh 30.01 in1016.3 mb 0.00 in0.0 mm 0.00 in0.0 mm 0.00 in0.0 mm
02:06 AM 55.2°F12.9°C 44.9°F7.2°C 68% 4.5 mph ESE7.2 kmh ESE 9.2 mph14.8 kmh 30.01 in1016.3 mb 0.00 in0.0 mm 0.00 in0.0 mm 0.00 in0.0 mm
02:05 AM 55.2°F12.9°C 44.9°F7.2°C 68% 5.4 mph ESE8.7 kmh ESE 7.6 mph12.2 kmh 30.01 in1016.3 mb 0.00 in0.0 mm 0.00 in0.0 mm 0.00 in0.0 mm
02:04 AM 55.2°F12.9°C 44.9°F7.2°C 68% 5.4 mph ESE8.7 kmh ESE 7.6 mph12.2 kmh 30.02 in1016.6 mb 0.00 in0.0 mm 0.00 in0.0 mm 0.00 in0.0 mm
02:03 AM 55.2°F12.9°C 44.9°F7.2°C 68% 3.1 mph ESE5.0 kmh ESE 7.6 mph12.2 kmh 30.01 in1016.3 mb 0.00 in0.0 mm 0.00 in0.0 mm 0.00 in0.0 mm
02:02 AM 55.2°F12.9°C 44.9°F7.2°C 68% 4.5 mph ESE7.2 kmh ESE 7.6 mph12.2 kmh 30.01 in1016.3 mb 0.00 in0.0 mm 0.00 in0.0 mm 0.00 in0.0 mm
02:01 AM 55.2°F12.9°C 44.9°F7.2°C 68% 4.5 mph SE7.2 kmh SE 7.6 mph12.2 kmh 30.01 in1016.3 mb 0.00 in0.0 mm 0.00 in0.0 mm 0.00 in0.0 mm
02:00 AM 55.2°F12.9°C 44.9°F7.2°C 68% 2.2 mph SE3.5 kmh SE 7.6 mph12.2 kmh 30.01 in1016.3 mb 0.00 in0.0 mm 0.00 in0.0 mm 0.00 in0.0 mm
01:59 AM 55.2°F12.9°C 44.9°F7.2°C 68% 3.8 mph ESE6.1 kmh ESE 7.6 mph12.2 kmh 30.01 in1016.3 mb 0.00 in0.0 mm 0.00 in0.0 mm 0.00 in0.0 mm
01:58 AM 55.2°F12.9°C 44.9°F7.2°C 68% 3.1 mph ESE5.0 kmh ESE 8.3 mph13.4 kmh 30.01 in1016.3 mb 0.00 in0.0 mm 0.00 in0.0 mm 0.00 in0.0 mm
01:57 AM 55.2°F12.9°C 44.9°F7.2°C 68% 4.5 mph ESE7.2 kmh ESE 9.8 mph15.8 kmh 30.01 in1016.3 mb 0.00 in0.0 mm 0.00 in0.0 mm 0.00 in0.0 mm
01:56 AM 55.2°F12.9°C 44.9°F7.2°C 68% 3.1 mph SE5.0 kmh SE 9.8 mph15.8 kmh 30.01 in1016.3 mb 0.00 in0.0 mm 0.00 in0.0 mm 0.00 in0.0 mm
01:55 AM 55.2°F12.9°C 44.9°F7.2°C 68% 3.8 mph SE6.1 kmh SE 9.8 mph15.8 kmh 30.01 in1016.3 mb 0.00 in0.0 mm 0.00 in0.0 mm 0.00 in0.0 mm
01:54 AM 55.2°F12.9°C 44.9°F7.2°C 68% 2.2 mph SE3.5 kmh SE 9.8 mph15.8 kmh 30.00 in1015.9 mb 0.00 in0.0 mm 0.00 in0.0 mm 0.00 in0.0 mm
01:53 AM 55.2°F12.9°C 44.9°F7.2°C 68% 2.2 mph SE3.5 kmh SE 11.4 mph18.3 kmh 30.01 in1016.3 mb 0.00 in0.0 mm 0.00 in0.0 mm 0.00 in0.0 mm
01:52 AM 55.2°F12.9°C 44.9°F7.2°C 68% 3.8 mph SE6.1 kmh SE 11.4 mph18.3 kmh 30.00 in1015.9 mb 0.00 in0.0 mm 0.00 in0.0 mm 0.00 in0.0 mm
01:51 AM 55.2°F12.9°C 44.9°F7.2°C 68% 2.2 mph SE3.5 kmh SE 11.4 mph18.3 kmh 30.01 in1016.3 mb 0.00 in0.0 mm 0.00 in0.0 mm 0.00 in0.0 mm
01:50 AM 55.2°F12.9°C 44.9°F7.2°C 68% 3.8 mph SE6.1 kmh SE 11.4 mph18.3 kmh 30.01 in1016.3 mb 0.00 in0.0 mm 0.00 in0.0 mm 0.00 in0.0 mm
01:49 AM 55.2°F12.9°C 44.9°F7.2°C 68% 5.4 mph SE8.7 kmh SE 11.4 mph18.3 kmh 30.01 in1016.3 mb 0.00 in0.0 mm 0.00 in0.0 mm 0.00 in0.0 mm
01:48 AM 55.2°F12.9°C 44.9°F7.2°C 68% 6.9 mph SE11.1 kmh SE 11.4 mph18.3 kmh 30.00 in1015.9 mb 0.00 in0.0 mm 0.00 in0.0 mm 0.00 in0.0 mm
01:47 AM 55.2°F12.9°C 44.9°F7.2°C 68% 2.2 mph SE3.5 kmh SE 11.4 mph18.3 kmh 30.01 in1016.3 mb 0.00 in0.0 mm 0.00 in0.0 mm 0.00 in0.0 mm
01:46 AM 55.2°F12.9°C 44.9°F7.2°C 68% 4.5 mph ESE7.2 kmh ESE 11.4 mph18.3 kmh 30.00 in1015.9 mb 0.00 in0.0 mm 0.00 in0.0 mm 0.00 in0.0 mm
01:45 AM 55.2°F12.9°C 44.9°F7.2°C 68% 4.5 mph ESE7.2 kmh ESE 11.4 mph18.3 kmh 30.01 in1016.3 mb 0.00 in0.0 mm 0.00 in0.0 mm 0.00 in0.0 mm
01:44 AM 55.2°F12.9°C 44.9°F7.2°C 68% 6.0 mph ESE9.7 kmh ESE 11.4 mph18.3 kmh 30.00 in1015.9 mb 0.00 in0.0 mm 0.00 in0.0 mm 0.00 in0.0 mm
01:43 AM 55.2°F12.9°C 44.9°F7.2°C 68% 3.1 mph ESE5.0 kmh ESE 11.4 mph18.3 kmh 30.00 in1015.9 mb 0.00 in0.0 mm 0.00 in0.0 mm 0.00 in0.0 mm
01:42 AM 55.2°F12.9°C 44.9°F7.2°C 68% 3.8 mph ESE6.1 kmh ESE 11.4 mph18.3 kmh 30.01 in1016.3 mb 0.00 in0.0 mm 0.00 in0.0 mm 0.00 in0.0 mm
01:41 AM 55.2°F12.9°C 44.9°F7.2°C 68% 4.5 mph ESE7.2 kmh ESE 11.4 mph18.3 kmh 30.00 in1015.9 mb 0.00 in0.0 mm 0.00 in0.0 mm 0.00 in0.0 mm
01:40 AM 55.2°F12.9°C 44.9°F7.2°C 68% 3.1 mph ESE5.0 kmh ESE 11.4 mph18.3 kmh 30.00 in1015.9 mb 0.00 in0.0 mm 0.00 in0.0 mm 0.00 in0.0 mm
01:39 AM 55.2°F12.9°C 44.9°F7.2°C 68% 2.2 mph ESE3.5 kmh ESE 11.4 mph18.3 kmh 30.01 in1016.3 mb 0.00 in0.0 mm 0.00 in0.0 mm 0.00 in0.0 mm
01:38 AM 55.2°F12.9°C 44.9°F7.2°C 68% 3.1 mph ESE5.0 kmh ESE 11.4 mph18.3 kmh 30.01 in1016.3 mb 0.00 in0.0 mm 0.00 in0.0 mm 0.00 in0.0 mm
01:37 AM 55.2°F12.9°C 44.9°F7.2°C 68% 5.4 mph ESE8.7 kmh ESE 11.4 mph18.3 kmh 30.01 in1016.3 mb 0.00 in0.0 mm 0.00 in0.0 mm 0.00 in0.0 mm
01:36 AM 55.2°F12.9°C 44.9°F7.2°C 68% 3.1 mph ESE5.0 kmh ESE 9.8 mph15.8 kmh 30.01 in1016.3 mb 0.00 in0.0 mm 0.00 in0.0 mm 0.00 in0.0 mm
01:35 AM 55.2°F12.9°C 44.5°F6.9°C 67% 5.4 mph ESE8.7 kmh ESE 9.8 mph15.8 kmh 30.01 in1016.3 mb 0.00 in0.0 mm 0.00 in0.0 mm 0.00 in0.0 mm
01:34 AM 55.2°F12.9°C 44.5°F6.9°C 67% 2.2 mph ESE3.5 kmh ESE 9.8 mph15.8 kmh 30.02 in1016.6 mb 0.00 in0.0 mm 0.00 in0.0 mm 0.00 in0.0 mm
01:33 AM 55.2°F12.9°C 44.9°F7.2°C 68% 4.5 mph ESE7.2 kmh ESE 12.1 mph19.5 kmh 30.01 in1016.3 mb 0.00 in0.0 mm 0.00 in0.0 mm 0.00 in0.0 mm
01:32 AM 55.2°F12.9°C 44.5°F6.9°C 67% 4.5 mph SE7.2 kmh SE 12.1 mph19.5 kmh 30.00 in1015.9 mb 0.00 in0.0 mm 0.00 in0.0 mm 0.00 in0.0 mm
01:31 AM 55.2°F12.9°C 44.5°F6.9°C 67% 3.1 mph SE5.0 kmh SE 12.1 mph19.5 kmh 30.01 in1016.3 mb 0.00 in0.0 mm 0.00 in0.0 mm 0.00 in0.0 mm
01:30 AM 55.2°F12.9°C 44.5°F6.9°C 67% 3.1 mph SE5.0 kmh SE 12.1 mph19.5 kmh 30.01 in1016.3 mb 0.00 in0.0 mm 0.00 in0.0 mm 0.00 in0.0 mm
01:29 AM 55.2°F12.9°C 44.5°F6.9°C 67% 3.8 mph SE6.1 kmh SE 12.1 mph19.5 kmh 30.01 in1016.3 mb 0.00 in0.0 mm 0.00 in0.0 mm 0.00 in0.0 mm
01:28 AM 55.2°F12.9°C 44.5°F6.9°C 67% 3.8 mph SE6.1 kmh SE 13.0 mph20.9 kmh 30.01 in1016.3 mb 0.00 in0.0 mm 0.00 in0.0 mm 0.00 in0.0 mm
01:27 AM 55.2°F12.9°C 44.5°F6.9°C 67% 5.4 mph SE8.7 kmh SE 13.0 mph20.9 kmh 30.01 in1016.3 mb 0.00 in0.0 mm 0.00 in0.0 mm 0.00 in0.0 mm
01:26 AM 55.2°F12.9°C 44.5°F6.9°C 67% 5.4 mph SE8.7 kmh SE 13.0 mph20.9 kmh 30.02 in1016.6 mb 0.00 in0.0 mm 0.00 in0.0 mm 0.00 in0.0 mm
01:25 AM 55.2°F12.9°C 44.5°F6.9°C 67% 3.1 mph SE5.0 kmh SE 13.0 mph20.9 kmh 30.00 in1015.9 mb 0.00 in0.0 mm 0.00 in0.0 mm 0.00 in0.0 mm
01:24 AM 55.2°F12.9°C 44.5°F6.9°C 67% 6.0 mph SE9.7 kmh SE 13.0 mph20.9 kmh 30.01 in1016.3 mb 0.00 in0.0 mm 0.00 in0.0 mm 0.00 in0.0 mm
01:23 AM 55.2°F12.9°C 44.5°F6.9°C 67% 8.3 mph SE13.4 kmh SE 13.0 mph20.9 kmh 30.01 in1016.3 mb 0.00 in0.0 mm 0.00 in0.0 mm 0.00 in0.0 mm
01:22 AM 55.2°F12.9°C 44.5°F6.9°C 67% 2.2 mph SE3.5 kmh SE 13.0 mph20.9 kmh 30.01 in1016.3 mb 0.00 in0.0 mm 0.00 in0.0 mm 0.00 in0.0 mm
01:21 AM 55.2°F12.9°C 44.5°F6.9°C 67% 4.5 mph ESE7.2 kmh ESE 13.0 mph20.9 kmh 30.01 in1016.3 mb 0.00 in0.0 mm 0.00 in0.0 mm 0.00 in0.0 mm
01:20 AM 55.2°F12.9°C 44.5°F6.9°C 67% 3.8 mph ESE6.1 kmh ESE 13.0 mph20.9 kmh 30.01 in1016.3 mb 0.00 in0.0 mm 0.00 in0.0 mm 0.00 in0.0 mm
01:19 AM 55.2°F12.9°C 44.5°F6.9°C 67% 7.6 mph ESE12.2 kmh ESE 13.0 mph20.9 kmh 30.01 in1016.3 mb 0.00 in0.0 mm 0.00 in0.0 mm 0.00 in0.0 mm
01:18 AM 55.2°F12.9°C 44.5°F6.9°C 67% 6.9 mph ESE11.1 kmh ESE 13.0 mph20.9 kmh 30.01 in1016.3 mb 0.00 in0.0 mm 0.00 in0.0 mm 0.00 in0.0 mm
01:17 AM 55.2°F12.9°C 44.5°F6.9°C 67% 4.5 mph ESE7.2 kmh ESE 11.4 mph18.3 kmh 30.01 in1016.3 mb 0.00 in0.0 mm 0.00 in0.0 mm 0.00 in0.0 mm
01:16 AM 55.2°F12.9°C 44.5°F6.9°C 67% 6.0 mph ESE9.7 kmh ESE 11.4 mph18.3 kmh 30.01 in1016.3 mb 0.00 in0.0 mm 0.00 in0.0 mm 0.00 in0.0 mm
01:15 AM 55.2°F12.9°C 44.5°F6.9°C 67% 3.8 mph ESE6.1 kmh ESE 11.4 mph18.3 kmh 30.01 in1016.3 mb 0.00 in0.0 mm 0.00 in0.0 mm 0.00 in0.0 mm
01:14 AM 55.2°F12.9°C 44.5°F6.9°C 67% 4.5 mph ESE7.2 kmh ESE 11.4 mph18.3 kmh 30.01 in1016.3 mb 0.00 in0.0 mm 0.00 in0.0 mm 0.00 in0.0 mm
01:13 AM 55.2°F12.9°C 44.5°F6.9°C 67% 4.5 mph ESE7.2 kmh ESE 11.4 mph18.3 kmh 30.01 in1016.3 mb 0.00 in0.0 mm 0.00 in0.0 mm 0.00 in0.0 mm
01:12 AM 55.2°F12.9°C 44.5°F6.9°C 67% 3.8 mph ESE6.1 kmh ESE 11.4 mph18.3 kmh 30.01 in1016.3 mb 0.00 in0.0 mm 0.00 in0.0 mm 0.00 in0.0 mm
01:11 AM 55.2°F12.9°C 44.5°F6.9°C 67% 5.4 mph ESE8.7 kmh ESE 11.4 mph18.3 kmh 30.01 in1016.3 mb 0.00 in0.0 mm 0.00 in0.0 mm 0.00 in0.0 mm
01:10 AM 55.2°F12.9°C 44.5°F6.9°C 67% 6.0 mph ESE9.7 kmh ESE 11.4 mph18.3 kmh 30.02 in1016.6 mb 0.00 in0.0 mm 0.00 in0.0 mm 0.00 in0.0 mm
01:09 AM 55.2°F12.9°C 44.5°F6.9°C 67% 2.2 mph ESE3.5 kmh ESE 12.1 mph19.5 kmh 30.01 in1016.3 mb 0.00 in0.0 mm 0.00 in0.0 mm 0.00 in0.0 mm
01:08 AM 55.2°F12.9°C 44.5°F6.9°C 67% 3.1 mph ESE5.0 kmh ESE 12.1 mph19.5 kmh 30.01 in1016.3 mb 0.00 in0.0 mm 0.00 in0.0 mm 0.00 in0.0 mm
01:07 AM 55.2°F12.9°C 44.5°F6.9°C 67% 3.8 mph ESE6.1 kmh ESE 12.1 mph19.5 kmh 30.01 in1016.3 mb 0.00 in0.0 mm 0.00 in0.0 mm 0.00 in0.0 mm
01:06 AM 55.2°F12.9°C 44.5°F6.9°C 67% 3.1 mph ESE5.0 kmh ESE 12.1 mph19.5 kmh 30.01 in1016.3 mb 0.00 in0.0 mm 0.00 in0.0 mm 0.00 in0.0 mm
01:05 AM 55.2°F12.9°C 44.1°F6.7°C 66% 6.0 mph ESE9.7 kmh ESE 12.1 mph19.5 kmh 30.02 in1016.6 mb 0.00 in0.0 mm 0.00 in0.0 mm 0.00 in0.0 mm
01:04 AM 55.2°F12.9°C 44.1°F6.7°C 66% 3.8 mph E6.1 kmh E 12.1 mph19.5 kmh 30.01 in1016.3 mb 0.00 in0.0 mm 0.00 in0.0 mm 0.00 in0.0 mm
01:03 AM 55.2°F12.9°C 44.1°F6.7°C 66% 3.1 mph E5.0 kmh E 12.1 mph19.5 kmh 30.01 in1016.3 mb 0.00 in0.0 mm 0.00 in0.0 mm 0.00 in0.0 mm
01:02 AM 55.2°F12.9°C 44.1°F6.7°C 66% 3.1 mph E5.0 kmh E 12.1 mph19.5 kmh 30.02 in1016.6 mb 0.00 in0.0 mm 0.00 in0.0 mm 0.00 in0.0 mm
01:01 AM 55.2°F12.9°C 44.1°F6.7°C 66% 3.8 mph E6.1 kmh E 12.1 mph19.5 kmh 30.02 in1016.6 mb 0.00 in0.0 mm 0.00 in0.0 mm 0.00 in0.0 mm
01:00 AM 55.2°F12.9°C 44.1°F6.7°C 66% 3.1 mph E5.0 kmh E 12.1 mph19.5 kmh 30.02 in1016.6 mb 0.00 in0.0 mm 0.00 in0.0 mm 0.00 in0.0 mm
12:59 AM 55.2°F12.9°C 44.1°F6.7°C 66% 5.4 mph E8.7 kmh E 12.1 mph19.5 kmh 30.01 in1016.3 mb 0.00 in0.0 mm 0.00 in0.0 mm 0.00 in0.0 mm
12:58 AM 55.2°F12.9°C 44.1°F6.7°C 66% 5.4 mph E8.7 kmh E 10.7 mph17.2 kmh 30.02 in1016.6 mb 0.00 in0.0 mm 0.00 in0.0 mm 0.00 in0.0 mm
12:57 AM 55.2°F12.9°C 44.1°F6.7°C 66% 6.9 mph E11.1 kmh E 10.7 mph17.2 kmh 30.02 in1016.6 mb 0.00 in0.0 mm 0.00 in0.0 mm 0.00 in0.0 mm
12:56 AM 55.2°F12.9°C 44.1°F6.7°C 66% 3.8 mph E6.1 kmh E 10.7 mph17.2 kmh 30.01 in1016.3 mb 0.00 in0.0 mm 0.00 in0.0 mm 0.00 in0.0 mm
12:55 AM 55.2°F12.9°C 44.1°F6.7°C 66% 4.5 mph E7.2 kmh E 10.7 mph17.2 kmh 30.01 in1016.3 mb 0.00 in0.0 mm 0.00 in0.0 mm 0.00 in0.0 mm
12:54 AM 55.2°F12.9°C 44.1°F6.7°C 66% 6.9 mph E11.1 kmh E 10.7 mph17.2 kmh 30.02 in1016.6 mb 0.00 in0.0 mm 0.00 in0.0 mm 0.00 in0.0 mm
12:53 AM 55.2°F12.9°C 44.1°F6.7°C 66% 6.9 mph E11.1 kmh E 10.7 mph17.2 kmh 30.02 in1016.6 mb 0.00 in0.0 mm 0.00 in0.0 mm 0.00 in0.0 mm
12:52 AM 55.2°F12.9°C 44.1°F6.7°C 66% 3.1 mph E5.0 kmh E 10.7 mph17.2 kmh 30.02 in1016.6 mb 0.00 in0.0 mm 0.00 in0.0 mm 0.00 in0.0 mm
12:51 AM 55.2°F12.9°C 44.1°F6.7°C 66% 3.8 mph E6.1 kmh E 10.7 mph17.2 kmh 30.02 in1016.6 mb 0.00 in0.0 mm 0.00 in0.0 mm 0.00 in0.0 mm
12:50 AM 55.2°F12.9°C 44.1°F6.7°C 66% 4.5 mph E7.2 kmh E 10.7 mph17.2 kmh 30.01 in1016.3 mb 0.00 in0.0 mm 0.00 in0.0 mm 0.00 in0.0 mm
12:49 AM 55.2°F12.9°C 44.1°F6.7°C 66% 3.8 mph E6.1 kmh E 10.7 mph17.2 kmh 30.01 in1016.3 mb 0.00 in0.0 mm 0.00 in0.0 mm 0.00 in0.0 mm
12:48 AM 55.4°F13.0°C 44.2°F6.8°C 66% 4.5 mph E7.2 kmh E 10.7 mph17.2 kmh 30.02 in1016.6 mb 0.00 in0.0 mm 0.00 in0.0 mm 0.00 in0.0 mm
12:47 AM 55.4°F13.0°C 44.2°F6.8°C 66% 3.8 mph ESE6.1 kmh ESE 10.7 mph17.2 kmh 30.02 in1016.6 mb 0.00 in0.0 mm 0.00 in0.0 mm 0.00 in0.0 mm
12:46 AM 55.4°F13.0°C 44.2°F6.8°C 66% 5.4 mph E8.7 kmh E 10.7 mph17.2 kmh 30.02 in1016.6 mb 0.00 in0.0 mm 0.00 in0.0 mm 0.00 in0.0 mm
12:45 AM 55.4°F13.0°C 44.2°F6.8°C 66% 5.4 mph E8.7 kmh E 11.4 mph18.3 kmh 30.01 in1016.3 mb 0.00 in0.0 mm 0.00 in0.0 mm 0.00 in0.0 mm
12:44 AM 55.4°F13.0°C 44.2°F6.8°C 66% 3.8 mph E6.1 kmh E 11.4 mph18.3 kmh 30.02 in1016.6 mb 0.00 in0.0 mm 0.00 in0.0 mm 0.00 in0.0 mm
12:43 AM 55.4°F13.0°C 44.2°F6.8°C 66% 3.8 mph ESE6.1 kmh ESE 11.4 mph18.3 kmh 30.02 in1016.6 mb 0.00 in0.0 mm 0.00 in0.0 mm 0.00 in0.0 mm
12:42 AM 55.4°F13.0°C 44.2°F6.8°C 66% 6.0 mph ESE9.7 kmh ESE 11.4 mph18.3 kmh 30.02 in1016.6 mb 0.00 in0.0 mm 0.00 in0.0 mm 0.00 in0.0 mm
12:41 AM 55.4°F13.0°C 44.2°F6.8°C 66% 6.0 mph ESE9.7 kmh ESE 11.4 mph18.3 kmh 30.02 in1016.6 mb 0.00 in0.0 mm 0.00 in0.0 mm 0.00 in0.0 mm
12:40 AM 55.4°F13.0°C 44.2°F6.8°C 66% 5.4 mph ESE8.7 kmh ESE 11.4 mph18.3 kmh 30.02 in1016.6 mb 0.00 in0.0 mm 0.00 in0.0 mm 0.00 in0.0 mm
12:39 AM 55.4°F13.0°C 44.2°F6.8°C 66% 4.5 mph ESE7.2 kmh ESE 11.4 mph18.3 kmh 30.02 in1016.6 mb 0.00 in0.0 mm 0.00 in0.0 mm 0.00 in0.0 mm
12:38 AM 55.4°F13.0°C 44.2°F6.8°C 66% 3.1 mph ESE5.0 kmh ESE 11.4 mph18.3 kmh 30.02 in1016.6 mb 0.00 in0.0 mm 0.00 in0.0 mm 0.00 in0.0 mm
12:37 AM 55.4°F13.0°C 44.2°F6.8°C 66% 3.8 mph ESE6.1 kmh ESE 11.4 mph18.3 kmh 30.01 in1016.3 mb 0.00 in0.0 mm 0.00 in0.0 mm 0.00 in0.0 mm
12:36 AM 55.4°F13.0°C 44.2°F6.8°C 66% 6.9 mph ESE11.1 kmh ESE 11.4 mph18.3 kmh 30.02 in1016.6 mb 0.00 in0.0 mm 0.00 in0.0 mm 0.00 in0.0 mm
12:35 AM 55.4°F13.0°C 44.2°F6.8°C 66% 3.1 mph ESE5.0 kmh ESE 9.8 mph15.8 kmh 30.02 in1016.6 mb 0.00 in0.0 mm 0.00 in0.0 mm 0.00 in0.0 mm
12:34 AM 55.4°F13.0°C 44.2°F6.8°C 66% 3.1 mph ESE5.0 kmh ESE 9.8 mph15.8 kmh 30.02 in1016.6 mb 0.00 in0.0 mm 0.00 in0.0 mm 0.00 in0.0 mm
12:33 AM 55.4°F13.0°C 44.2°F6.8°C 66% 4.5 mph ESE7.2 kmh ESE 9.8 mph15.8 kmh 30.02 in1016.6 mb 0.00 in0.0 mm 0.00 in0.0 mm 0.00 in0.0 mm
12:32 AM 55.4°F13.0°C 44.2°F6.8°C 66% 4.5 mph ESE7.2 kmh ESE 9.8 mph15.8 kmh 30.02 in1016.6 mb 0.00 in0.0 mm 0.00 in0.0 mm 0.00 in0.0 mm
12:31 AM 55.4°F13.0°C 44.2°F6.8°C 66% 4.5 mph E7.2 kmh E 9.8 mph15.8 kmh 30.02 in1016.6 mb 0.00 in0.0 mm 0.00 in0.0 mm 0.00 in0.0 mm
12:30 AM 55.4°F13.0°C 44.2°F6.8°C 66% 2.2 mph E3.5 kmh E 9.8 mph15.8 kmh 30.02 in1016.6 mb 0.00 in0.0 mm 0.00 in0.0 mm 0.00 in0.0 mm
12:29 AM 55.4°F13.0°C 44.2°F6.8°C 66% 2.2 mph E3.5 kmh E 9.8 mph15.8 kmh 30.03 in1016.9 mb 0.00 in0.0 mm 0.00 in0.0 mm 0.00 in0.0 mm
12:28 AM 55.4°F13.0°C 44.2°F6.8°C 66% 2.2 mph E3.5 kmh E 9.8 mph15.8 kmh 30.02 in1016.6 mb 0.00 in0.0 mm 0.00 in0.0 mm 0.00 in0.0 mm
12:27 AM 55.4°F13.0°C 44.2°F6.8°C 66% 3.8 mph E6.1 kmh E 9.8 mph15.8 kmh 30.02 in1016.6 mb 0.00 in0.0 mm 0.00 in0.0 mm 0.00 in0.0 mm
12:26 AM 55.4°F13.0°C 44.2°F6.8°C 66% 6.9 mph E11.1 kmh E 9.8 mph15.8 kmh 30.02 in1016.6 mb 0.00 in0.0 mm 0.00 in0.0 mm 0.00 in0.0 mm
12:25 AM 55.4°F13.0°C 43.8°F6.6°C 65% 4.5 mph E7.2 kmh E 9.2 mph14.8 kmh 30.02 in1016.6 mb 0.00 in0.0 mm 0.00 in0.0 mm 0.00 in0.0 mm
12:24 AM 55.4°F13.0°C 43.8°F6.6°C 65% 3.8 mph E6.1 kmh E 9.2 mph14.8 kmh 30.03 in1016.9 mb 0.00 in0.0 mm 0.00 in0.0 mm 0.00 in0.0 mm
12:23 AM 55.4°F13.0°C 43.8°F6.6°C 65% 5.4 mph E8.7 kmh E 9.2 mph14.8 kmh 30.03 in1016.9 mb 0.00 in0.0 mm 0.00 in0.0 mm 0.00 in0.0 mm
12:22 AM 55.4°F13.0°C 43.8°F6.6°C 65% 6.0 mph E9.7 kmh E 9.2 mph14.8 kmh 30.02 in1016.6 mb 0.00 in0.0 mm 0.00 in0.0 mm 0.00 in0.0 mm
12:21 AM 55.4°F13.0°C 43.8°F6.6°C 65% 3.8 mph ESE6.1 kmh ESE 13.0 mph20.9 kmh 30.02 in1016.6 mb 0.00 in0.0 mm 0.00 in0.0 mm 0.00 in0.0 mm
12:20 AM 55.4°F13.0°C 43.8°F6.6°C 65% 3.8 mph ESE6.1 kmh ESE 13.0 mph20.9 kmh 30.02 in1016.6 mb 0.00 in0.0 mm 0.00 in0.0 mm 0.00 in0.0 mm
12:19 AM 55.4°F13.0°C 43.8°F6.6°C 65% 3.8 mph ESE6.1 kmh ESE 13.0 mph20.9 kmh 30.03 in1016.9 mb 0.00 in0.0 mm 0.00 in0.0 mm 0.00 in0.0 mm
12:18 AM 55.4°F13.0°C 43.8°F6.6°C 65% 6.0 mph ESE9.7 kmh ESE 13.0 mph20.9 kmh 30.02 in1016.6 mb 0.00 in0.0 mm 0.00 in0.0 mm 0.00 in0.0 mm
12:17 AM 55.4°F13.0°C 43.8°F6.6°C 65% 3.8 mph ESE6.1 kmh ESE 13.0 mph20.9 kmh 30.02 in1016.6 mb 0.00 in0.0 mm 0.00 in0.0 mm 0.00 in0.0 mm
12:16 AM 55.4°F13.0°C 43.8°F6.6°C 65% 4.5 mph ESE7.2 kmh ESE 13.0 mph20.9 kmh 30.02 in1016.6 mb 0.00 in0.0 mm 0.00 in0.0 mm 0.00 in0.0 mm
12:15 AM 55.4°F13.0°C 43.8°F6.6°C 65% 4.5 mph ESE7.2 kmh ESE 13.0 mph20.9 kmh 30.02 in1016.6 mb 0.00 in0.0 mm 0.00 in0.0 mm 0.00 in0.0 mm
12:14 AM 55.4°F13.0°C 43.8°F6.6°C 65% 3.8 mph ESE6.1 kmh ESE 13.0 mph20.9 kmh 30.02 in1016.6 mb 0.00 in0.0 mm 0.00 in0.0 mm 0.00 in0.0 mm
12:13 AM 55.4°F13.0°C 43.8°F6.6°C 65% 3.1 mph SE5.0 kmh SE 13.0 mph20.9 kmh 30.03 in1016.9 mb 0.00 in0.0 mm 0.00 in0.0 mm 0.00 in0.0 mm
12:12 AM 55.4°F13.0°C 43.8°F6.6°C 65% 6.9 mph SE11.1 kmh SE 13.0 mph20.9 kmh 30.02 in1016.6 mb 0.00 in0.0 mm 0.00 in0.0 mm 0.00 in0.0 mm
12:11 AM 55.4°F13.0°C 43.8°F6.6°C 65% 6.9 mph SE11.1 kmh SE 13.0 mph20.9 kmh 30.03 in1016.9 mb 0.00 in0.0 mm 0.00 in0.0 mm 0.00 in0.0 mm
12:10 AM 55.4°F13.0°C 43.8°F6.6°C 65% 3.8 mph ESE6.1 kmh ESE 9.8 mph15.8 kmh 30.02 in1016.6 mb 0.00 in0.0 mm 0.00 in0.0 mm 0.00 in0.0 mm
12:09 AM 55.4°F13.0°C 43.8°F6.6°C 65% 2.2 mph ESE3.5 kmh ESE 9.8 mph15.8 kmh 30.02 in1016.6 mb 0.00 in0.0 mm 0.00 in0.0 mm 0.00 in0.0 mm
12:08 AM 55.4°F13.0°C 43.8°F6.6°C 65% 6.0 mph ESE9.7 kmh ESE 9.8 mph15.8 kmh 30.03 in1016.9 mb 0.00 in0.0 mm 0.00 in0.0 mm 0.00 in0.0 mm
12:07 AM 55.4°F13.0°C 43.8°F6.6°C 65% 4.5 mph ESE7.2 kmh ESE 9.8 mph15.8 kmh 30.02 in1016.6 mb 0.00 in0.0 mm 0.00 in0.0 mm 0.00 in0.0 mm
12:06 AM 55.4°F13.0°C 43.8°F6.6°C 65% 3.8 mph ESE6.1 kmh ESE 10.7 mph17.2 kmh 30.02 in1016.6 mb 0.00 in0.0 mm 0.00 in0.0 mm 0.00 in0.0 mm
12:05 AM 55.4°F13.0°C 43.8°F6.6°C 65% 6.0 mph E9.7 kmh E 10.7 mph17.2 kmh 30.02 in1016.6 mb 0.00 in0.0 mm 0.00 in0.0 mm 0.00 in0.0 mm
12:04 AM 55.4°F13.0°C 43.8°F6.6°C 65% 6.0 mph E9.7 kmh E 10.7 mph17.2 kmh 30.03 in1016.9 mb 0.00 in0.0 mm 0.00 in0.0 mm 0.00 in0.0 mm
12:03 AM 55.4°F13.0°C 43.8°F6.6°C 65% 5.4 mph E8.7 kmh E 11.4 mph18.3 kmh 30.02 in1016.6 mb 0.00 in0.0 mm 0.00 in0.0 mm 0.00 in0.0 mm
12:02 AM 55.4°F13.0°C 43.8°F6.6°C 65% 6.0 mph E9.7 kmh E 11.4 mph18.3 kmh 30.02 in1016.6 mb 0.00 in0.0 mm 0.00 in0.0 mm 0.00 in0.0 mm
12:01 AM 55.4°F13.0°C 43.8°F6.6°C 65% 5.4 mph ESE8.7 kmh ESE 11.4 mph18.3 kmh 30.03 in1016.9 mb 0.00 in0.0 mm 0.00 in0.0 mm 0.00 in0.0 mm
12:00 AM 55.4°F13.0°C 43.8°F6.6°C 65% 6.0 mph ESE9.7 kmh ESE 11.4 mph18.3 kmh 30.03 in1016.9 mb 0.00 in0.0 mm 0.00 in0.0 mm 0.00 in0.0 mm